Birmingham (BHM/KBHM)

Map

Destinations

Information

Location
Birmingham, AL
Local Time
15:35 / 3:35 pm
GMT Time
20:35 / 8:35 pm
Gates
Unassigned
No FAA reported delays
METAR KBHM 231953Z 29014KT 10SM SCT027 OVC039 17/11 A2997 RMK AO2 SLP145 T01670111
TAF KBHM 231827Z 2318/2418 27009G18KT P6SM BKN025 FM240000 27004KT P6SM SCT030 FM240300 22002KT P6SM SKC FM241200 28006KT P6SM SKC